Portada
METAR-TAF:

METAR-TAF

Aeroports :

Djibouti, Djibouti

latitud: 11-33N, longitud: 043-10E, altitud: 49 m

Observació

L'informe es va fer fa 34 minuts, a les 14:00 UTC
Vent 6 kt del Est/Nord-Est
Temperatura 30°C
Humitat 70%
Pressió 1012 hPa
Visibilitat 10 km o més
sense núvols per sota de 1500 mi sense presència de cumulonimbus.

METAR: HDAM 261400Z 06006KT CAVOK 30/24 Q1012

Hora: 17:34 (14:34 UTC)

Pronòstic

L'informe es va fer fa 3 hores i 34 minuts, a les 11:00 UTC
Pronòstic vàlid del 26 a les 12 UTC al 27 a les 12 UTC
Vent 10 kt del Est
Visibilitat 10 km o més
Núvols disperses a una alçada de 2300 ft
Evolucionant progressivament
l' 26 a les 15 UTC al 26 a les 18 UTC
Vent 5 kt amb direcció variable
Escasses núvols a una alçada de 2000 ft
Evolucionant progressivament
l' 27 a les 00 UTC al 27 a les 06 UTC
Vent kt del Nord
Núvols disperses a una alçada de 2000 ft

TAF: HDAM 261100Z 2612/2712 08010KT 9999 SCT023 BECMG 2615/2618 VRB05KT FEW020 BECMG 2700/2706 00000KT SCT020

Observacions i pronòstics meteorològics de més de 4000 aeroports (METAR i TAF).

Les estacions disponibles són els punts grocs i vermells al mapa.

Posi el ratolí al punt desitjat per veure el nom de l'estació.

Feu clic per veure les observacions i els pronòstics meteorològics.

Per canviar el mapa: feu clic els botons verds amb una creu de color negre per apropar; al botó verd amb un guió per allunyar la imatge; o en les fletxes verdes per a mapes adjacents.


METAR-TAF: